createdAt,value
2023-04-12T00:00:02.255Z,97954.63
2023-04-12T00:02:35.922Z,97949.56
2023-04-12T00:05:04.582Z,97951.59
2023-04-12T00:07:32.842Z,97946.63
2023-04-12T00:10:00.920Z,97936.66
2023-04-12T00:12:28.938Z,97935.34
2023-04-12T00:14:58.491Z,97918.97
2023-04-12T00:17:26.762Z,97917.13
2023-04-12T00:19:54.997Z,97925.16
2023-04-12T00:22:23.040Z,97934.50
2023-04-12T00:24:51.239Z,97928.22
2023-04-12T00:27:19.369Z,97931.28
2023-04-12T00:29:47.465Z,97926.31
2023-04-12T00:32:19.336Z,97925.81
2023-04-12T00:34:47.736Z,97932.38
2023-04-12T00:37:15.867Z,97928.03
2023-04-12T00:39:44.375Z,97930.88
2023-04-12T00:42:12.572Z,97926.91
2023-04-12T00:44:40.743Z,97929.91
2023-04-12T00:47:09.845Z,97920.94
2023-04-12T00:49:39.625Z,97917.16
2023-04-12T00:52:10.240Z,97909.16
2023-04-12T00:54:38.711Z,97907.50
2023-04-12T00:57:07.182Z,97914.16
2023-04-12T00:59:35.382Z,97924.16
2023-04-12T01:02:03.930Z,97906.53
2023-04-12T01:04:32.266Z,97916.00
2023-04-12T01:07:20.769Z,97911.84
2023-04-12T01:09:54.837Z,97920.81
2023-04-12T01:12:32.879Z,97918.13
2023-04-12T01:15:11.284Z,97908.28
2023-04-12T01:17:45.600Z,97899.50
2023-04-12T01:20:17.006Z,97901.16
2023-04-12T01:23:00.781Z,97905.78
2023-04-12T01:25:39.498Z,97908.88
2023-04-12T01:28:11.097Z,97918.84
2023-04-12T01:30:39.771Z,97907.13
2023-04-12T01:33:11.985Z,97909.63
2023-04-12T01:35:41.410Z,97891.31
2023-04-12T01:38:10.998Z,97900.88
2023-04-12T01:40:40.888Z,97894.25
2023-04-12T01:43:11.542Z,97870.09
2023-04-12T01:45:40.468Z,97856.28
2023-04-12T01:48:09.845Z,97846.94
2023-04-12T01:50:41.888Z,97824.66
2023-04-12T01:53:14.186Z,97813.66
2023-04-12T01:55:45.925Z,97816.03
2023-04-12T01:58:16.558Z,97792.47
2023-04-12T02:00:46.179Z,97796.50
2023-04-12T02:03:15.131Z,97773.31
2023-04-12T02:05:43.600Z,97777.16
2023-04-12T02:08:12.556Z,97780.34
2023-04-12T02:10:41.220Z,97758.09
2023-04-12T02:13:09.400Z,97755.81
2023-04-12T02:15:40.640Z,97760.63
2023-04-12T02:18:08.740Z,97755.56
2023-04-12T02:20:36.929Z,97745.25
2023-04-12T02:23:05.093Z,97748.22
2023-04-12T02:25:33.439Z,97740.88
2023-04-12T02:28:02.518Z,97742.53
2023-04-12T02:30:30.995Z,97736.03
2023-04-12T02:33:02.440Z,97744.34
2023-04-12T02:35:35.185Z,97743.97
2023-04-12T02:38:10.169Z,97731.81
2023-04-12T02:40:42.331Z,97724.09
2023-04-12T02:43:14.688Z,97720.75
2023-04-12T02:45:46.621Z,97692.09
2023-04-12T02:48:16.928Z,97683.28
2023-04-12T02:50:45.946Z,97681.50
2023-04-12T02:53:17.800Z,97675.72
2023-04-12T02:55:51.191Z,97669.47
2023-04-12T02:58:24.504Z,97659.28
2023-04-12T03:00:53.890Z,97655.50
2023-04-12T03:03:32.270Z,97636.69
2023-04-12T03:06:09.928Z,97625.41
2023-04-12T03:08:39.911Z,97616.00
2023-04-12T03:11:08.798Z,97603.25
2023-04-12T03:13:36.985Z,97602.31
2023-04-12T03:16:21.692Z,97586.00
2023-04-12T03:18:53.303Z,97583.34
2023-04-12T03:21:24.256Z,97578.31
2023-04-12T03:23:52.970Z,97573.00
2023-04-12T03:26:21.533Z,97555.84
2023-04-12T03:29:00.731Z,97533.53
2023-04-12T03:31:31.550Z,97519.06
2023-04-12T03:34:06.931Z,97510.91
2023-04-12T03:36:35.820Z,97501.09
2023-04-12T03:39:11.704Z,97480.16
2023-04-12T03:41:41.115Z,97469.50
2023-04-12T03:44:09.480Z,97459.25
2023-04-12T03:46:37.674Z,97441.28
2023-04-12T03:49:11.602Z,97448.22
2023-04-12T03:51:42.881Z,97438.06
2023-04-12T03:54:11.749Z,97417.41
2023-04-12T03:56:51.110Z,97400.06
2023-04-12T03:59:26.053Z,97376.50
2023-04-12T04:01:55.385Z,97384.75
2023-04-12T04:04:26.313Z,97371.47
2023-04-12T04:06:58.915Z,97355.69
2023-04-12T04:09:29.241Z,97340.34
2023-04-12T04:11:57.604Z,97336.28
2023-04-12T04:14:27.852Z,97326.28
2023-04-12T04:16:56.631Z,97297.84
2023-04-12T04:19:26.298Z,97294.81
2023-04-12T04:21:56.413Z,97270.47
2023-04-12T04:24:25.236Z,97266.34
2023-04-12T04:26:56.449Z,97248.75
2023-04-12T04:29:29.252Z,97229.09
2023-04-12T04:31:58.099Z,97231.38
2023-04-12T04:34:29.508Z,97220.38
2023-04-12T04:37:08.124Z,97193.91
2023-04-12T04:39:36.574Z,97184.19
2023-04-12T04:42:06.800Z,97179.28
2023-04-12T04:44:46.246Z,97154.72
2023-04-12T04:47:14.598Z,97146.00
2023-04-12T04:49:44.433Z,97143.75
2023-04-12T04:52:23.900Z,97110.66
2023-04-12T04:54:57.826Z,97104.53
2023-04-12T04:57:28.159Z,97078.75
2023-04-12T04:59:57.738Z,97062.81
2023-04-12T05:02:26.332Z,97038.25
2023-04-12T05:04:57.016Z,97020.84
2023-04-12T05:07:27.672Z,97013.03
2023-04-12T05:09:56.004Z,96993.22
2023-04-12T05:12:24.859Z,96976.19
2023-04-12T05:15:08.826Z,96954.28
2023-04-12T05:17:41.140Z,96937.47
2023-04-12T05:20:11.983Z,96924.97
2023-04-12T05:22:40.525Z,96916.97
2023-04-12T05:25:08.867Z,96900.34
2023-04-12T05:27:43.513Z,96894.41
2023-04-12T05:30:16.403Z,96870.44
2023-04-12T05:32:45.542Z,96855.88
2023-04-12T05:35:16.751Z,96840.31
2023-04-12T05:38:01.645Z,96838.66
2023-04-12T05:40:32.888Z,96825.13
2023-04-12T05:43:01.461Z,96820.22
2023-04-12T05:45:32.307Z,96815.72
2023-04-12T05:48:01.280Z,96813.66
2023-04-12T05:50:31.117Z,96807.91
2023-04-12T05:52:59.473Z,96795.63
2023-04-12T05:55:31.311Z,96784.38
2023-04-12T05:57:59.677Z,96784.97
2023-04-12T06:00:29.008Z,96780.88
2023-04-12T06:02:59.923Z,96773.06
2023-04-12T06:05:28.593Z,96763.44
2023-04-12T06:08:00.058Z,96763.03
2023-04-12T06:10:28.177Z,96762.84
2023-04-12T06:12:56.413Z,96757.50
2023-04-12T06:15:24.886Z,96748.72
2023-04-12T06:17:55.419Z,96742.78
2023-04-12T06:20:23.593Z,96747.09
2023-04-12T06:22:52.793Z,96736.44
2023-04-12T06:25:23.244Z,96731.72
2023-04-12T06:27:52.079Z,96723.91
2023-04-12T06:30:21.307Z,96715.34
2023-04-12T06:32:52.829Z,96717.41
2023-04-12T06:35:21.646Z,96719.00
2023-04-12T06:37:50.390Z,96712.91
2023-04-12T06:40:18.460Z,96709.41
2023-04-12T06:42:48.205Z,96710.81
2023-04-12T06:45:22.953Z,96696.09
2023-04-12T06:47:51.094Z,96700.59
2023-04-12T06:50:19.708Z,96710.00
2023-04-12T06:52:48.857Z,96709.78
2023-04-12T06:55:17.093Z,96704.25
2023-04-12T06:57:46.273Z,96700.34
2023-04-12T07:00:16.636Z,96710.34
2023-04-12T07:02:44.916Z,96708.28
2023-04-12T07:05:13.099Z,96714.78
2023-04-12T07:07:41.576Z,96716.78
2023-04-12T07:10:09.914Z,96726.81
2023-04-12T07:12:38.243Z,96725.78
2023-04-12T07:15:06.867Z,96724.69
2023-04-12T07:17:37.130Z,96735.56
2023-04-12T07:20:05.514Z,96743.50
2023-04-12T07:22:33.674Z,96752.13
2023-04-12T07:25:02.067Z,96751.50
2023-04-12T07:27:30.248Z,96763.44
2023-04-12T07:29:58.863Z,96763.66
2023-04-12T07:32:27.501Z,96774.19
2023-04-12T07:34:57.405Z,96767.59
2023-04-12T07:37:25.698Z,96772.72
2023-04-12T07:39:53.826Z,96773.94
2023-04-12T07:42:21.955Z,96774.13
2023-04-12T07:44:50.505Z,96778.97
2023-04-12T07:47:18.629Z,96789.19
2023-04-12T07:49:46.584Z,96794.53
2023-04-12T07:52:16.116Z,96803.22
2023-04-12T07:54:44.245Z,96805.34
2023-04-12T07:57:12.326Z,96802.91
2023-04-12T07:59:40.475Z,96805.91
2023-04-12T08:02:08.922Z,96811.63
2023-04-12T08:04:37.094Z,96817.47
2023-04-12T08:07:05.580Z,96828.50
2023-04-12T08:09:35.187Z,96837.63
2023-04-12T08:12:03.645Z,96847.44
2023-04-12T08:14:32.311Z,96859.34
2023-04-12T08:17:00.679Z,96856.78
2023-04-12T08:19:29.066Z,96873.38
2023-04-12T08:21:57.637Z,96884.56
2023-04-12T08:24:25.597Z,96884.09
2023-04-12T08:26:56.234Z,96894.41
2023-04-12T08:29:24.593Z,96907.78
2023-04-12T08:31:52.826Z,96907.06
2023-04-12T08:34:22.685Z,96918.75
2023-04-12T08:36:50.937Z,96933.06
2023-04-12T08:39:19.285Z,96931.03
2023-04-12T08:41:47.772Z,96941.59
2023-04-12T08:44:18.298Z,96949.25
2023-04-12T08:46:47.420Z,96961.97
2023-04-12T08:49:17.457Z,96961.75
2023-04-12T08:51:45.855Z,96977.19
2023-04-12T08:54:14.134Z,96971.16
2023-04-12T08:56:44.124Z,96970.28
2023-04-12T08:59:18.193Z,96981.75
2023-04-12T09:01:50.254Z,96978.53
2023-04-12T09:04:18.658Z,96976.34
2023-04-12T09:06:46.981Z,96990.84
2023-04-12T09:09:15.838Z,96992.31
2023-04-12T09:11:43.972Z,96995.44
2023-04-12T09:14:25.281Z,97004.38
2023-04-12T09:16:55.008Z,97001.91
2023-04-12T09:19:32.814Z,97009.22
2023-04-12T09:22:01.167Z,97013.66
2023-04-12T09:24:29.320Z,97017.16
2023-04-12T09:27:04.781Z,97045.06
2023-04-12T09:29:34.122Z,97022.28
2023-04-12T09:32:04.259Z,97031.00
2023-04-12T09:34:33.044Z,97035.72
2023-04-12T09:37:01.381Z,97045.91
2023-04-12T09:39:33.727Z,97045.84
2023-04-12T09:42:10.521Z,97062.06
2023-04-12T09:44:43.955Z,97059.25
2023-04-12T09:47:13.582Z,97046.44
2023-04-12T09:49:42.903Z,97050.63
2023-04-12T09:52:12.207Z,97049.50
2023-04-12T09:54:43.736Z,97061.31
2023-04-12T09:57:12.809Z,97073.69
2023-04-12T09:59:41.889Z,97067.00
2023-04-12T10:02:15.957Z,97067.25
2023-04-12T10:04:46.337Z,97051.47
2023-04-12T10:07:15.296Z,97041.78
2023-04-12T10:09:43.554Z,97061.03
2023-04-12T10:12:11.809Z,97053.44
2023-04-12T10:14:40.276Z,97057.53
2023-04-12T10:17:11.077Z,97061.06
2023-04-12T10:19:40.965Z,97052.06
2023-04-12T10:22:10.516Z,97057.84
2023-04-12T10:24:39.855Z,97075.72
2023-04-12T10:27:08.287Z,97071.66
2023-04-12T10:29:37.443Z,97056.75
2023-04-12T10:32:22.876Z,97075.31
2023-04-12T10:34:52.531Z,97069.34
2023-04-12T10:37:22.885Z,97075.44
2023-04-12T10:39:54.583Z,97079.53
2023-04-12T10:42:24.385Z,97083.72
2023-04-12T10:44:53.503Z,97076.13
2023-04-12T10:47:40.359Z,97080.09
2023-04-12T10:50:22.284Z,97070.28
2023-04-12T10:53:07.427Z,97084.88
2023-04-12T10:55:38.492Z,97084.91
2023-04-12T10:58:07.153Z,97089.56
2023-04-12T11:00:50.232Z,97085.72
2023-04-12T11:03:19.002Z,97097.78
2023-04-12T11:05:58.182Z,97097.88
2023-04-12T11:08:45.542Z,97102.44
2023-04-12T11:11:35.315Z,97111.00
2023-04-12T11:14:03.642Z,97116.09
2023-04-12T11:16:31.846Z,97115.88
2023-04-12T11:19:00.939Z,97127.47
2023-04-12T11:21:29.526Z,97139.16
2023-04-12T11:23:58.556Z,97149.66
2023-04-12T11:26:26.937Z,97159.16
2023-04-12T11:28:56.894Z,97173.88
2023-04-12T11:31:25.745Z,97166.50
2023-04-12T11:33:54.116Z,97177.50
2023-04-12T11:36:22.585Z,97172.94
2023-04-12T11:38:51.062Z,97176.22
2023-04-12T11:41:19.429Z,97184.19
2023-04-12T11:43:49.262Z,97181.22
2023-04-12T11:46:18.798Z,97190.91
2023-04-12T11:48:47.512Z,97189.16
2023-04-12T11:51:24.849Z,97193.34
2023-04-12T11:53:57.434Z,97201.16
2023-04-12T11:56:27.885Z,97218.03
2023-04-12T11:58:56.672Z,97230.50
2023-04-12T12:01:28.033Z,97230.38
2023-04-12T12:03:56.868Z,97244.56
2023-04-12T12:06:26.446Z,97247.31
2023-04-12T12:08:55.291Z,97247.00
2023-04-12T12:11:24.368Z,97252.56
2023-04-12T12:13:53.919Z,97255.50
2023-04-12T12:16:27.284Z,97265.50
2023-04-12T12:18:56.188Z,97266.56
2023-04-12T12:21:24.805Z,97268.09
2023-04-12T12:23:53.040Z,97274.84
2023-04-12T12:26:22.602Z,97278.75
2023-04-12T12:28:51.966Z,97281.66
2023-04-12T12:31:21.699Z,97291.13
2023-04-12T12:33:52.651Z,97290.66
2023-04-12T12:36:21.322Z,97306.25
2023-04-12T12:38:51.556Z,97308.06
2023-04-12T12:41:21.120Z,97315.72
2023-04-12T12:43:51.137Z,97327.78
2023-04-12T12:46:19.620Z,97338.88
2023-04-12T12:48:49.264Z,97336.78
2023-04-12T12:51:20.332Z,97362.06
2023-04-12T13:49:13.202Z,97615.75
2023-04-12T13:51:41.988Z,97614.09
2023-04-12T13:54:10.279Z,97636.78
2023-04-12T13:56:38.901Z,97621.91
2023-04-12T13:59:07.266Z,97631.59
2023-04-12T14:01:35.579Z,97627.69
2023-04-12T14:04:05.215Z,97642.97
2023-04-12T14:06:36.614Z,97652.03
2023-04-12T14:09:06.776Z,97650.78
2023-04-12T14:11:47.948Z,97653.91
2023-04-12T14:14:17.099Z,97661.94
2023-04-12T14:16:45.948Z,97670.84
2023-04-12T14:19:14.608Z,97685.50
2023-04-12T14:21:46.604Z,97689.63
2023-04-12T14:24:14.996Z,97700.75
2023-04-12T14:26:43.800Z,97684.25
2023-04-12T14:29:13.661Z,97700.75
2023-04-12T14:31:42.146Z,97715.19
2023-04-12T14:34:11.116Z,97728.59
2023-04-12T14:36:39.495Z,97731.09
2023-04-12T14:39:12.667Z,97741.63
2023-04-12T14:41:42.453Z,97746.59
2023-04-12T14:44:10.497Z,97767.41
2023-04-12T14:46:38.948Z,97765.34
2023-04-12T14:49:07.467Z,97777.31
2023-04-12T14:51:35.887Z,97774.84
2023-04-12T14:54:04.408Z,97784.34
2023-04-12T14:56:42.529Z,97802.91
2023-04-12T14:59:13.625Z,97789.50
2023-04-12T15:01:42.641Z,97810.75
2023-04-12T15:04:11.404Z,97818.38
2023-04-12T15:06:42.685Z,97802.28
2023-04-12T15:09:11.686Z,97825.00
2023-04-12T15:11:46.378Z,97821.66
2023-04-12T15:14:18.186Z,97820.66
2023-04-12T15:16:49.188Z,97836.53
2023-04-12T15:19:22.322Z,97858.44
2023-04-12T15:21:52.466Z,97867.09
2023-04-12T15:24:22.448Z,97863.38
2023-04-12T15:26:53.645Z,97887.75
2023-04-12T15:29:24.966Z,97885.66
2023-04-12T15:31:53.704Z,97885.72
2023-04-12T15:34:23.701Z,97908.81
2023-04-12T15:36:52.974Z,97902.22
2023-04-12T15:39:21.679Z,97920.81
2023-04-12T15:41:50.264Z,97943.09
2023-04-12T15:44:20.234Z,97946.19
2023-04-12T15:47:03.235Z,97944.94
2023-04-12T15:49:37.531Z,97955.91
2023-04-12T15:52:06.286Z,97952.78
2023-04-12T15:54:35.687Z,97961.47
2023-04-12T15:57:09.648Z,97968.09
2023-04-12T15:59:40.826Z,97986.66
2023-04-12T16:02:10.622Z,97990.19
2023-04-12T16:04:39.575Z,97986.03
2023-04-12T16:07:08.309Z,97989.75
2023-04-12T16:09:37.908Z,97992.63
2023-04-12T16:12:07.100Z,98004.22
2023-04-12T16:14:35.902Z,98020.31
2023-04-12T16:17:06.321Z,98021.13
2023-04-12T16:19:34.864Z,98026.28
2023-04-12T16:22:03.597Z,98060.31
2023-04-12T16:24:31.881Z,98054.56
2023-04-12T16:27:00.817Z,98057.06
2023-04-12T16:29:31.760Z,98064.50
2023-04-12T16:32:00.468Z,98054.16
2023-04-12T16:34:31.660Z,98068.63
2023-04-12T16:36:59.942Z,98069.03
2023-04-12T16:39:29.311Z,98071.13
2023-04-12T16:41:57.738Z,98071.97
2023-04-12T16:44:26.083Z,98079.63
2023-04-12T16:46:55.286Z,98077.38
2023-04-12T16:49:23.724Z,98066.84
2023-04-12T16:51:54.536Z,98078.44
2023-04-12T16:54:22.900Z,98076.56
2023-04-12T16:56:51.222Z,98070.78
2023-04-12T16:59:19.345Z,98072.22
2023-04-12T17:01:48.016Z,98084.00
2023-04-12T17:04:16.795Z,98067.06
2023-04-12T17:06:45.460Z,98081.94
2023-04-12T17:09:15.132Z,98083.59
2023-04-12T17:11:43.533Z,98089.38
2023-04-12T17:14:12.357Z,98095.97
2023-04-12T17:16:41.173Z,98092.50
2023-04-12T17:19:10.678Z,98107.56
2023-04-12T17:21:42.531Z,98117.06
2023-04-12T17:24:11.001Z,98117.50
2023-04-12T17:26:40.521Z,98129.88
2023-04-12T17:29:09.574Z,98131.34
2023-04-12T17:31:39.465Z,98150.56
2023-04-12T17:34:08.364Z,98141.06
2023-04-12T17:36:38.302Z,98159.66
2023-04-12T17:39:06.708Z,98155.94
2023-04-12T17:41:34.973Z,98173.09
2023-04-12T17:44:05.401Z,98170.22
2023-04-12T17:46:34.890Z,98191.53
2023-04-12T17:49:05.834Z,98182.03
2023-04-12T17:51:34.769Z,98195.25
2023-04-12T17:54:03.753Z,98212.63
2023-04-12T17:56:32.492Z,98208.69
2023-04-12T17:59:02.186Z,98209.31
2023-04-12T18:01:32.121Z,98226.69
2023-04-12T18:04:02.987Z,98220.47
2023-04-12T18:06:31.778Z,98225.03
2023-04-12T18:09:00.367Z,98231.19
2023-04-12T18:11:28.766Z,98229.09
2023-04-12T18:13:57.112Z,98242.91
2023-04-12T18:16:26.642Z,98253.84
2023-04-12T18:18:57.470Z,98262.91
2023-04-12T18:21:26.326Z,98260.59
2023-04-12T18:23:54.579Z,98267.38
2023-04-12T18:26:23.841Z,98278.13
2023-04-12T18:28:52.210Z,98284.66
2023-04-12T18:31:20.390Z,98284.84
2023-04-12T18:33:48.643Z,98292.72
2023-04-12T18:36:18.465Z,98296.59
2023-04-12T18:38:47.076Z,98292.41
2023-04-12T18:41:16.351Z,98293.06
2023-04-12T18:43:45.005Z,98308.28
2023-04-12T18:46:17.956Z,98310.97
2023-04-12T18:48:48.184Z,98311.53
2023-04-12T18:51:18.295Z,98320.44
2023-04-12T18:53:46.682Z,98325.16
2023-04-12T18:56:18.275Z,98334.06
2023-04-12T18:58:55.188Z,98334.97
2023-04-12T19:01:25.088Z,98346.56
2023-04-12T19:03:55.076Z,98352.88
2023-04-12T19:06:26.114Z,98352.25
2023-04-12T19:08:55.435Z,98351.22
2023-04-12T19:11:24.639Z,98359.03
2023-04-12T19:13:54.189Z,98357.75
2023-04-12T19:16:24.670Z,98372.81
2023-04-12T19:18:53.900Z,98380.59
2023-04-12T19:21:24.960Z,98389.31
2023-04-12T19:23:53.538Z,98396.88
2023-04-12T19:26:23.463Z,98400.22
2023-04-12T19:28:55.576Z,98397.91
2023-04-12T19:31:24.947Z,98415.09
2023-04-12T19:33:53.259Z,98417.16
2023-04-12T19:36:23.204Z,98412.56
2023-04-12T19:38:54.027Z,98427.41
2023-04-12T19:41:23.825Z,98436.94
2023-04-12T19:43:52.097Z,98453.88
2023-04-12T19:46:20.495Z,98439.63
2023-04-12T19:48:49.210Z,98453.41
2023-04-12T19:51:17.487Z,98464.53
2023-04-12T19:53:47.838Z,98456.59
2023-04-12T19:56:17.679Z,98459.84
2023-04-12T19:58:46.241Z,98472.44
2023-04-12T20:01:16.148Z,98476.75
2023-04-12T20:03:44.995Z,98475.84
2023-04-12T20:06:14.487Z,98474.16
2023-04-12T20:08:43.997Z,98486.19
2023-04-12T20:11:13.694Z,98499.59
2023-04-12T20:13:43.985Z,98502.66
2023-04-12T20:16:14.686Z,98514.28
2023-04-12T20:18:43.882Z,98512.47
2023-04-12T20:21:12.984Z,98517.63
2023-04-12T20:23:41.692Z,98518.84
2023-04-12T20:26:10.288Z,98521.72
2023-04-12T20:28:39.092Z,98530.84
2023-04-12T20:31:09.116Z,98538.25
2023-04-12T20:33:37.710Z,98531.31
2023-04-12T20:36:10.209Z,98540.13
2023-04-12T20:38:38.962Z,98553.06
2023-04-12T20:41:08.457Z,98540.00
2023-04-12T20:43:45.069Z,98547.59
2023-04-12T20:46:17.140Z,98547.31
2023-04-12T20:48:46.906Z,98547.69
2023-04-12T20:51:17.062Z,98563.84
2023-04-12T20:53:47.456Z,98562.53
2023-04-12T20:56:17.129Z,98569.75
2023-04-12T20:58:46.289Z,98572.31
2023-04-12T21:01:16.242Z,98564.00
2023-04-12T21:03:46.769Z,98573.41
2023-04-12T21:06:16.032Z,98579.94
2023-04-12T21:08:47.500Z,98582.34
2023-04-12T21:11:16.511Z,98592.59
2023-04-12T21:13:46.347Z,98601.34
2023-04-12T21:16:16.764Z,98605.03
2023-04-12T21:18:45.308Z,98611.56
2023-04-12T21:21:14.210Z,98622.00
2023-04-12T21:23:43.044Z,98628.16
2023-04-12T21:26:12.653Z,98637.22
2023-04-12T21:28:41.636Z,98639.72
2023-04-12T21:31:11.336Z,98654.59
2023-04-12T21:33:41.957Z,98646.72
2023-04-12T21:36:12.703Z,98650.59
2023-04-12T21:38:41.427Z,98650.78
2023-04-12T21:41:11.619Z,98653.63
2023-04-12T21:43:40.378Z,98654.00
2023-04-12T21:46:09.468Z,98642.31
2023-04-12T21:48:38.615Z,98644.00
2023-04-12T21:51:09.970Z,98651.53
2023-04-12T21:53:38.735Z,98660.75
2023-04-12T21:56:08.015Z,98656.75
2023-04-12T21:58:36.732Z,98658.78
2023-04-12T22:01:05.473Z,98656.94
2023-04-12T22:03:34.252Z,98669.78
2023-04-12T22:06:04.646Z,98673.31
2023-04-12T22:08:35.132Z,98668.78
2023-04-12T22:11:03.570Z,98680.47
2023-04-12T22:13:32.809Z,98681.88
2023-04-12T22:16:02.705Z,98681.72
2023-04-12T22:18:32.010Z,98676.91
2023-04-12T22:21:05.066Z,98685.59
2023-04-12T22:23:37.213Z,98683.63
2023-04-12T22:26:07.488Z,98691.50
2023-04-12T22:28:38.259Z,98681.84
2023-04-12T22:31:08.239Z,98679.00
2023-04-12T22:33:38.251Z,98689.38
2023-04-12T22:36:07.955Z,98685.53
2023-04-12T22:38:39.827Z,98686.75
2023-04-12T22:41:08.643Z,98680.72
2023-04-12T22:43:42.156Z,98679.22
2023-04-12T22:46:16.186Z,98689.44
2023-04-12T22:48:47.267Z,98684.44
2023-04-12T22:51:16.470Z,98692.63
2023-04-12T22:53:46.929Z,98684.44
2023-04-12T22:56:15.367Z,98682.59
2023-04-12T22:58:44.022Z,98691.59
2023-04-12T23:01:12.822Z,98687.44
2023-04-12T23:03:41.964Z,98692.78
2023-04-12T23:06:12.860Z,98688.44
2023-04-12T23:08:44.196Z,98693.44
2023-04-12T23:11:15.297Z,98692.13
2023-04-12T23:13:44.190Z,98701.28
2023-04-12T23:16:12.604Z,98705.59
2023-04-12T23:18:41.340Z,98704.13
2023-04-12T23:21:12.145Z,98712.66
2023-04-12T23:23:40.786Z,98711.19
2023-04-12T23:26:10.870Z,98712.69
2023-04-12T23:28:40.960Z,98729.91
2023-04-12T23:31:09.957Z,98719.19
2023-04-12T23:33:43.083Z,98732.91
2023-04-12T23:36:12.440Z,98721.88
2023-04-12T23:38:40.830Z,98723.22
2023-04-12T23:41:12.642Z,98725.06
2023-04-12T23:43:42.841Z,98727.25
2023-04-12T23:46:12.232Z,98736.44
2023-04-12T23:48:40.775Z,98725.41
2023-04-12T23:51:09.705Z,98731.91
2023-04-12T23:53:38.590Z,98728.59
2023-04-12T23:56:08.083Z,98730.09
2023-04-12T23:58:36.754Z,98734.91
